createdAt,value
2023-11-05T00:01:04.767Z,96004.00
2023-11-05T00:03:51.099Z,96007.40
2023-11-05T00:06:19.224Z,96005.80
2023-11-05T00:08:47.308Z,96004.80
2023-11-05T00:11:15.390Z,95996.60
2023-11-05T00:13:43.457Z,96001.00
2023-11-05T00:16:11.493Z,96007.00
2023-11-05T00:18:39.542Z,96013.40
2023-11-05T00:21:07.724Z,96012.80
2023-11-05T00:23:35.833Z,96001.20
2023-11-05T00:26:03.985Z,95999.80
2023-11-05T00:28:32.084Z,96002.80
2023-11-05T00:31:00.274Z,96002.00
2023-11-05T00:33:28.698Z,95998.00
2023-11-05T00:35:57.485Z,95992.80
2023-11-05T00:38:25.853Z,95990.20
2023-11-05T00:40:53.919Z,95979.20
2023-11-05T00:43:22.559Z,95974.60
2023-11-05T00:45:50.885Z,95977.00
2023-11-05T00:48:19.109Z,95980.00
2023-11-05T00:50:47.138Z,95991.80
2023-11-05T00:53:15.137Z,95990.40
2023-11-05T00:55:43.166Z,95991.00
2023-11-05T00:58:11.380Z,95991.40
2023-11-05T01:00:40.195Z,95994.00
2023-11-05T01:03:08.769Z,96008.40
2023-11-05T01:05:37.623Z,96014.00
2023-11-05T01:08:05.884Z,96023.00
2023-11-05T01:10:34.006Z,96020.00
2023-11-05T01:13:02.162Z,96020.40
2023-11-05T01:15:31.962Z,96017.80
2023-11-05T01:18:00.160Z,96017.60
2023-11-05T01:20:29.190Z,96008.20
2023-11-05T01:22:57.752Z,96015.40
2023-11-05T01:25:26.459Z,96012.60
2023-11-05T01:27:54.994Z,96017.80
2023-11-05T01:30:23.164Z,96027.80
2023-11-05T01:32:51.523Z,96023.80
2023-11-05T01:35:19.791Z,96014.20
2023-11-05T01:37:48.018Z,96012.20
2023-11-05T01:40:16.182Z,96020.00
2023-11-05T01:42:44.213Z,96023.40
2023-11-05T01:45:12.232Z,96023.20
2023-11-05T01:47:40.503Z,96025.20
2023-11-05T01:50:09.553Z,96016.80
2023-11-05T01:52:37.621Z,96021.80
2023-11-05T01:55:07.724Z,96026.20
2023-11-05T01:57:36.076Z,96022.80
2023-11-05T02:00:06.600Z,96026.20
2023-11-05T02:02:41.977Z,96021.80
2023-11-05T02:05:10.786Z,96023.40
2023-11-05T02:07:39.245Z,96017.00
2023-11-05T02:10:08.402Z,96027.80
2023-11-05T02:12:36.958Z,96020.00
2023-11-05T02:15:07.354Z,96018.40
2023-11-05T02:17:35.640Z,96021.60
2023-11-05T02:20:07.778Z,96019.60
2023-11-05T02:22:36.005Z,96014.60
2023-11-05T02:25:04.253Z,96013.60
2023-11-05T02:27:32.451Z,96013.60
2023-11-05T02:30:00.547Z,96009.80
2023-11-05T02:32:28.743Z,96001.00
2023-11-05T02:34:56.888Z,95992.20
2023-11-05T02:37:25.160Z,96003.80
2023-11-05T02:39:53.244Z,96000.60
2023-11-05T02:42:21.455Z,95999.60
2023-11-05T02:44:51.054Z,95996.80
2023-11-05T02:47:19.094Z,95989.80
2023-11-05T02:49:47.296Z,95990.00
2023-11-05T02:52:15.464Z,95983.20
2023-11-05T02:54:43.888Z,95980.80
2023-11-05T02:57:11.971Z,95978.60
2023-11-05T02:59:40.022Z,95981.00
2023-11-05T03:02:08.097Z,95978.80
2023-11-05T03:04:36.192Z,95980.60
2023-11-05T03:07:04.614Z,95966.40
2023-11-05T03:09:32.633Z,95974.40
2023-11-05T03:12:00.670Z,95971.40
2023-11-05T03:14:28.845Z,95978.80
2023-11-05T03:16:58.157Z,95980.20
2023-11-05T03:19:26.865Z,95982.00
2023-11-05T03:21:54.886Z,95972.80
2023-11-05T03:24:23.652Z,95969.80
2023-11-05T03:26:51.829Z,95975.00
2023-11-05T03:29:20.176Z,95965.60
2023-11-05T03:31:50.454Z,95962.60
2023-11-05T03:34:19.562Z,95974.80
2023-11-05T03:36:47.857Z,95970.40
2023-11-05T03:39:16.148Z,95969.60
2023-11-05T03:41:44.462Z,95981.80
2023-11-05T03:44:12.556Z,95975.00
2023-11-05T03:46:42.214Z,95977.80
2023-11-05T03:49:10.962Z,95987.80
2023-11-05T03:51:39.272Z,95989.80
2023-11-05T03:54:07.596Z,95989.00
2023-11-05T03:56:36.054Z,95996.80
2023-11-05T03:59:04.097Z,95993.80
2023-11-05T04:01:32.144Z,95986.60
2023-11-05T04:04:01.192Z,95981.00
2023-11-05T04:06:29.239Z,95976.80
2023-11-05T04:08:57.408Z,95979.40
2023-11-05T04:11:25.976Z,95971.40
2023-11-05T04:13:53.986Z,95979.40
2023-11-05T04:16:22.247Z,95978.80
2023-11-05T04:18:51.081Z,95975.80
2023-11-05T04:21:20.425Z,95964.40
2023-11-05T04:23:48.496Z,95962.80
2023-11-05T04:26:16.571Z,95957.80
2023-11-05T04:28:44.676Z,95950.00
2023-11-05T04:31:12.874Z,95955.60
2023-11-05T04:33:41.155Z,95950.20
2023-11-05T04:36:09.988Z,95936.20
2023-11-05T04:38:38.837Z,95939.00
2023-11-05T04:41:07.072Z,95939.60
2023-11-05T04:43:35.201Z,95940.60
2023-11-05T04:46:03.525Z,95920.00
2023-11-05T04:48:31.941Z,95914.20
2023-11-05T04:51:00.220Z,95915.80
2023-11-05T04:53:29.233Z,95910.00
2023-11-05T04:55:57.302Z,95909.20
2023-11-05T04:58:25.633Z,95908.20
2023-11-05T05:00:53.891Z,95914.60
2023-11-05T05:03:22.131Z,95913.80
2023-11-05T05:05:50.454Z,95887.00
2023-11-05T05:08:18.505Z,95885.60
2023-11-05T05:10:46.807Z,95885.20
2023-11-05T05:13:15.972Z,95866.60
2023-11-05T05:15:44.316Z,95869.60
2023-11-05T05:18:12.381Z,95859.00
2023-11-05T05:20:40.514Z,95854.60
2023-11-05T05:23:08.581Z,95865.00
2023-11-05T05:25:36.829Z,95863.00
2023-11-05T05:28:05.172Z,95881.20
2023-11-05T05:30:33.335Z,95861.00
2023-11-05T05:33:01.553Z,95860.20
2023-11-05T05:35:29.722Z,95855.20
2023-11-05T05:37:57.864Z,95858.80
2023-11-05T05:40:25.964Z,95857.60
2023-11-05T05:42:54.285Z,95864.20
2023-11-05T05:45:22.369Z,95844.40
2023-11-05T05:47:50.520Z,95854.20
2023-11-05T05:50:18.687Z,95867.20
2023-11-05T05:52:46.678Z,95865.00
2023-11-05T05:55:16.826Z,95859.60
2023-11-05T05:57:45.222Z,95844.60
2023-11-05T06:00:13.572Z,95845.40
2023-11-05T06:02:41.658Z,95849.00
2023-11-05T06:05:09.804Z,95841.60
2023-11-05T06:07:38.183Z,95837.80
2023-11-05T06:10:08.613Z,95843.20
2023-11-05T06:12:36.818Z,95843.00
2023-11-05T06:15:11.408Z,95825.40
2023-11-05T06:17:41.468Z,95827.00
2023-11-05T06:20:10.280Z,95819.00
2023-11-05T06:22:39.673Z,95824.00
2023-11-05T06:25:11.655Z,95830.40
2023-11-05T06:27:40.977Z,95826.40
2023-11-05T06:30:10.221Z,95824.80
2023-11-05T06:32:40.014Z,95836.80
2023-11-05T06:35:08.576Z,95830.20
2023-11-05T06:37:36.680Z,95834.80
2023-11-05T06:40:06.061Z,95830.40
2023-11-05T06:42:34.082Z,95826.60
2023-11-05T06:45:02.119Z,95818.40
2023-11-05T06:47:30.427Z,95814.00
2023-11-05T06:49:58.669Z,95819.00
2023-11-05T06:52:28.038Z,95818.80
2023-11-05T06:54:57.760Z,95823.60
2023-11-05T06:57:25.954Z,95815.40
2023-11-05T07:00:12.044Z,95815.00
2023-11-05T07:02:40.059Z,95807.60
2023-11-05T07:05:08.774Z,95794.40
2023-11-05T07:07:37.184Z,95793.00
2023-11-05T07:10:06.130Z,95784.40
2023-11-05T07:12:34.183Z,95781.20
2023-11-05T07:15:05.102Z,95776.40
2023-11-05T07:17:34.387Z,95782.80
2023-11-05T07:20:02.982Z,95778.40
2023-11-05T07:22:31.222Z,95773.40
2023-11-05T07:24:59.457Z,95766.80
2023-11-05T07:27:27.521Z,95760.40
2023-11-05T07:29:55.676Z,95756.40
2023-11-05T07:32:23.759Z,95742.60
2023-11-05T07:34:52.917Z,95731.80
2023-11-05T07:37:21.140Z,95723.80
2023-11-05T07:39:49.286Z,95725.80
2023-11-05T07:42:17.388Z,95723.00
2023-11-05T07:44:45.445Z,95714.80
2023-11-05T07:47:13.714Z,95711.40
2023-11-05T07:49:41.812Z,95712.60
2023-11-05T07:52:10.164Z,95712.00
2023-11-05T07:54:38.453Z,95713.20
2023-11-05T07:57:07.146Z,95711.40
2023-11-05T07:59:35.554Z,95705.60
2023-11-05T08:02:03.936Z,95722.80
2023-11-05T08:04:32.165Z,95734.40
2023-11-05T08:07:00.416Z,95747.40
2023-11-05T08:09:28.554Z,95750.20
2023-11-05T08:11:56.635Z,95756.20
2023-11-05T08:14:24.714Z,95760.60
2023-11-05T08:16:52.839Z,95742.00
2023-11-05T08:19:20.990Z,95734.80
2023-11-05T08:21:49.123Z,95730.20
2023-11-05T08:24:17.504Z,95725.00
2023-11-05T08:26:45.667Z,95725.20
2023-11-05T08:29:15.854Z,95725.00
2023-11-05T08:31:46.681Z,95726.60
2023-11-05T08:34:15.529Z,95720.80
2023-11-05T08:36:43.697Z,95706.00
2023-11-05T08:39:12.569Z,95697.60
2023-11-05T08:41:43.567Z,95697.60
2023-11-05T08:44:11.731Z,95698.40
2023-11-05T08:46:40.078Z,95700.80
2023-11-05T08:49:09.493Z,95701.00
2023-11-05T08:51:38.329Z,95708.00
2023-11-05T08:54:06.803Z,95709.20
2023-11-05T08:56:34.825Z,95701.80
2023-11-05T08:59:03.496Z,95690.80
2023-11-05T09:01:32.083Z,95680.20
2023-11-05T09:04:00.480Z,95671.60
2023-11-05T09:06:31.363Z,95663.40
2023-11-05T09:09:00.067Z,95671.60
2023-11-05T09:11:28.244Z,95683.40
2023-11-05T09:13:56.273Z,95690.40
2023-11-05T09:16:24.838Z,95688.80
2023-11-05T09:18:53.015Z,95692.40
2023-11-05T09:21:21.667Z,95685.00
2023-11-05T09:23:52.461Z,95667.00
2023-11-05T09:26:22.948Z,95649.60
2023-11-05T09:28:51.213Z,95624.00
2023-11-05T09:31:19.339Z,95600.80
2023-11-05T09:33:47.457Z,95588.00
2023-11-05T09:36:15.592Z,95587.00
2023-11-05T09:38:43.696Z,95597.80
2023-11-05T09:41:11.848Z,95599.00
2023-11-05T09:43:40.710Z,95584.60
2023-11-05T09:46:08.867Z,95571.60
2023-11-05T09:48:36.991Z,95590.00
2023-11-05T09:51:05.173Z,95603.80
2023-11-05T09:53:33.240Z,95601.80
2023-11-05T09:56:01.369Z,95596.40
2023-11-05T09:58:30.764Z,95596.80
2023-11-05T10:00:58.809Z,95589.40
2023-11-05T10:03:27.471Z,95570.60
2023-11-05T10:05:57.204Z,95561.20
2023-11-05T10:08:25.445Z,95556.20
2023-11-05T10:10:58.137Z,95567.00
2023-11-05T10:13:29.444Z,95565.00
2023-11-05T10:16:01.237Z,95554.60
2023-11-05T10:18:29.828Z,95556.80
2023-11-05T10:20:59.990Z,95547.00
2023-11-05T10:23:31.307Z,95529.20
2023-11-05T10:25:59.380Z,95527.40
2023-11-05T10:28:29.071Z,95514.40
2023-11-05T10:30:59.229Z,95485.80
2023-11-05T10:33:33.095Z,95475.20
2023-11-05T10:36:02.082Z,95483.60
2023-11-05T10:38:32.232Z,95487.80
2023-11-05T10:41:01.034Z,95482.40
2023-11-05T10:43:35.973Z,95479.60
2023-11-05T10:47:05.286Z,95471.20
2023-11-05T10:49:45.214Z,95441.00
2023-11-05T10:52:17.458Z,95436.00
2023-11-05T10:54:48.700Z,95415.60
2023-11-05T10:57:43.152Z,95423.40
2023-11-05T11:00:17.341Z,95414.40
2023-11-05T11:02:53.800Z,95408.60
2023-11-05T11:05:43.256Z,95404.20
2023-11-05T11:08:17.157Z,95403.80
2023-11-05T11:10:50.114Z,95404.20
2023-11-05T11:13:31.245Z,95389.40
2023-11-05T11:16:02.754Z,95387.80
2023-11-05T11:18:32.926Z,95398.00
2023-11-05T11:21:02.469Z,95398.20
2023-11-05T11:23:37.197Z,95395.80
2023-11-05T11:26:06.807Z,95412.40
2023-11-05T11:28:35.212Z,95409.40
2023-11-05T11:31:03.520Z,95426.00
2023-11-05T11:34:28.185Z,95420.80
2023-11-05T11:37:10.308Z,95397.80
2023-11-05T11:39:38.595Z,95386.20
2023-11-05T11:42:06.867Z,95380.40
2023-11-05T11:44:35.123Z,95370.60
2023-11-05T11:47:03.950Z,95366.40
2023-11-05T11:49:32.421Z,95372.40
2023-11-05T11:52:04.081Z,95373.80
2023-11-05T11:54:34.690Z,95368.60
2023-11-05T11:57:02.808Z,95365.60
2023-11-05T11:59:33.787Z,95356.80
2023-11-05T12:02:06.440Z,95363.80
2023-11-05T12:04:34.685Z,95352.20
2023-11-05T12:07:06.658Z,95353.60
2023-11-05T12:09:38.344Z,95348.20
2023-11-05T12:12:06.938Z,95346.40
2023-11-05T12:14:34.989Z,95337.60
2023-11-05T12:17:03.331Z,95349.40
2023-11-05T12:19:32.851Z,95341.00
2023-11-05T12:22:01.268Z,95330.40
2023-11-05T12:24:29.598Z,95337.60
2023-11-05T12:26:59.370Z,95321.80
2023-11-05T12:29:30.699Z,95323.80
2023-11-05T12:31:58.991Z,95313.40
2023-11-05T12:34:27.394Z,95308.80
2023-11-05T12:36:55.781Z,95308.40
2023-11-05T12:39:26.608Z,95307.00
2023-11-05T12:41:55.380Z,95311.60
2023-11-05T12:44:28.690Z,95298.00
2023-11-05T12:47:02.787Z,95296.20
2023-11-05T12:49:34.491Z,95300.60
2023-11-05T12:52:02.491Z,95299.40
2023-11-05T12:54:30.527Z,95292.40
2023-11-05T12:56:58.789Z,95288.20
2023-11-05T12:59:27.203Z,95276.00
2023-11-05T13:02:02.906Z,95270.00
2023-11-05T13:04:35.856Z,95257.80
2023-11-05T13:07:05.282Z,95259.60
2023-11-05T13:09:36.412Z,95260.20
2023-11-05T13:12:06.521Z,95261.40
2023-11-05T13:14:34.833Z,95260.20
2023-11-05T13:17:07.448Z,95249.40
2023-11-05T13:19:36.004Z,95240.00
2023-11-05T13:22:11.650Z,95240.00
2023-11-05T13:24:45.741Z,95248.40
2023-11-05T13:27:14.133Z,95240.80
2023-11-05T13:29:43.866Z,95243.80
2023-11-05T13:32:13.755Z,95251.60
2023-11-05T13:34:41.846Z,95254.80
2023-11-05T13:37:10.671Z,95278.80
2023-11-05T13:39:40.284Z,95289.20
2023-11-05T13:42:10.606Z,95283.40
2023-11-05T13:44:40.915Z,95286.00
2023-11-05T13:47:09.091Z,95283.60
2023-11-05T13:49:37.569Z,95281.60
2023-11-05T13:52:05.875Z,95291.20
2023-11-05T13:54:34.659Z,95296.80
2023-11-05T13:57:19.139Z,95305.60
2023-11-05T13:59:59.464Z,95306.00
2023-11-05T14:02:27.708Z,95319.20
2023-11-05T14:04:56.187Z,95325.80
2023-11-05T14:07:24.417Z,95338.20
2023-11-05T14:09:52.495Z,95356.00
2023-11-05T14:12:20.806Z,95370.20
2023-11-05T14:14:48.831Z,95392.40
2023-11-05T14:17:17.012Z,95398.20
2023-11-05T14:19:45.148Z,95390.80
2023-11-05T14:22:13.349Z,95376.40
2023-11-05T14:24:41.637Z,95373.80
2023-11-05T14:27:13.979Z,95375.00
2023-11-05T14:29:42.300Z,95374.80
2023-11-05T14:32:10.514Z,95390.80
2023-11-05T14:34:38.639Z,95390.80
2023-11-05T14:37:07.111Z,95389.40
2023-11-05T14:39:35.251Z,95398.00
2023-11-05T14:42:04.251Z,95394.80
2023-11-05T14:44:32.746Z,95407.80
2023-11-05T14:47:00.958Z,95424.80
2023-11-05T14:49:30.894Z,95416.40
2023-11-05T14:51:59.313Z,95429.20
2023-11-05T14:54:28.121Z,95418.00
2023-11-05T14:56:56.234Z,95430.60
2023-11-05T14:59:24.547Z,95426.40
2023-11-05T15:01:53.318Z,95429.00
2023-11-05T15:04:24.094Z,95425.00
2023-11-05T15:06:52.331Z,95435.80
2023-11-05T15:09:21.775Z,95430.60
2023-11-05T15:11:50.165Z,95443.60
2023-11-05T15:14:20.293Z,95461.20
2023-11-05T15:16:48.490Z,95444.40
2023-11-05T15:19:18.130Z,95459.60
2023-11-05T15:21:46.405Z,95418.00
2023-11-05T15:24:14.995Z,95407.20
2023-11-05T15:26:43.491Z,95391.00
2023-11-05T15:29:12.376Z,95404.60
2023-11-05T15:31:44.988Z,95397.00
2023-11-05T15:34:15.383Z,95382.00
2023-11-05T15:36:43.647Z,95356.60
2023-11-05T15:39:11.994Z,95361.80
2023-11-05T15:41:40.118Z,95368.40
2023-11-05T15:44:08.326Z,95352.20
2023-11-05T15:46:36.529Z,95338.40
2023-11-05T15:49:04.995Z,95344.00
2023-11-05T15:51:37.569Z,95331.20
2023-11-05T15:54:05.839Z,95332.80
2023-11-05T15:56:36.178Z,95340.40
2023-11-05T15:59:04.632Z,95296.20
2023-11-05T16:01:32.949Z,95279.80
2023-11-05T16:04:01.167Z,95352.40
2023-11-05T16:06:30.191Z,95371.40
2023-11-05T16:09:03.894Z,95361.00
2023-11-05T16:11:32.565Z,95342.00
2023-11-05T16:14:01.126Z,95339.60
2023-11-05T16:16:29.287Z,95401.80
2023-11-05T16:18:57.374Z,95421.40
2023-11-05T16:21:25.539Z,95430.00
2023-11-05T16:23:53.816Z,95433.00
2023-11-05T16:26:22.381Z,95427.20
2023-11-05T16:28:51.076Z,95408.00
2023-11-05T16:31:29.532Z,95411.60
2023-11-05T16:33:57.773Z,95418.00
2023-11-05T16:36:26.284Z,95425.60
2023-11-05T16:38:59.803Z,95430.00
2023-11-05T16:41:28.836Z,95456.40
2023-11-05T16:43:57.465Z,95473.80
2023-11-05T16:46:30.882Z,95475.00
2023-11-05T16:49:31.370Z,95475.80
2023-11-05T16:52:16.533Z,95485.00
2023-11-05T16:54:45.786Z,95471.40
2023-11-05T16:57:13.823Z,95469.00
2023-11-05T16:59:43.866Z,95457.20
2023-11-05T17:02:12.126Z,95446.80
2023-11-05T17:04:47.260Z,95458.00
2023-11-05T17:07:16.809Z,95465.20
2023-11-05T17:09:44.953Z,95473.60
2023-11-05T17:12:13.154Z,95476.40
2023-11-05T17:14:41.872Z,95482.40
2023-11-05T17:17:10.492Z,95504.20
2023-11-05T17:19:39.031Z,95499.20
2023-11-05T17:22:07.080Z,95502.20
2023-11-05T17:24:52.700Z,95503.40
2023-11-05T17:27:29.491Z,95507.60
2023-11-05T17:30:01.738Z,95514.80
2023-11-05T17:32:38.717Z,95512.00
2023-11-05T17:35:10.349Z,95522.80
2023-11-05T17:37:38.504Z,95516.80
2023-11-05T17:40:15.065Z,95514.60
2023-11-05T17:42:44.651Z,95524.00
2023-11-05T17:45:27.005Z,95535.20
2023-11-05T17:48:01.755Z,95540.40
2023-11-05T17:50:29.861Z,95544.00
2023-11-05T17:52:58.121Z,95542.20
2023-11-05T17:55:27.406Z,95541.00
2023-11-05T17:57:57.657Z,95536.40
2023-11-05T18:00:30.235Z,95543.60
2023-11-05T18:03:05.048Z,95546.40
2023-11-05T18:09:12.767Z,95554.40
2023-11-05T18:11:45.899Z,95561.80
2023-11-05T18:14:15.492Z,95562.20
2023-11-05T18:16:43.787Z,95566.60
2023-11-05T18:19:11.943Z,95573.40
2023-11-05T18:21:40.279Z,95575.80
2023-11-05T18:24:21.463Z,95579.80
2023-11-05T18:26:49.464Z,95591.20
2023-11-05T18:29:17.471Z,95585.80
2023-11-05T18:31:45.841Z,95592.00
2023-11-05T18:34:15.575Z,95604.80
2023-11-05T18:36:46.139Z,95606.80
2023-11-05T18:39:19.740Z,95612.40
2023-11-05T18:41:50.767Z,95607.60
2023-11-05T18:44:18.932Z,95624.00
2023-11-05T18:46:47.176Z,95629.20
2023-11-05T18:49:28.143Z,95638.80
2023-11-05T18:52:19.227Z,95641.00
2023-11-05T18:54:47.308Z,95638.40
2023-11-05T18:57:15.369Z,95642.00
2023-11-05T18:59:44.579Z,95641.00
2023-11-05T19:02:12.929Z,95659.20
2023-11-05T19:04:43.943Z,95657.00
2023-11-05T19:07:12.373Z,95655.60
2023-11-05T19:10:02.881Z,95657.00
2023-11-05T19:12:36.177Z,95663.60
2023-11-05T19:15:05.620Z,95660.60
2023-11-05T19:17:34.079Z,95660.20
2023-11-05T19:20:06.398Z,95669.80
2023-11-05T19:22:34.627Z,95671.80
2023-11-05T19:25:12.801Z,95686.80
2023-11-05T19:27:41.286Z,95693.40
2023-11-05T19:30:11.344Z,95706.60
2023-11-05T19:32:43.762Z,95711.80
2023-11-05T19:35:17.112Z,95711.20
2023-11-05T19:37:45.759Z,95719.40
2023-11-05T19:40:16.998Z,95728.60
2023-11-05T19:42:46.429Z,95734.20
2023-11-05T19:45:15.879Z,95739.00
2023-11-05T19:47:44.185Z,95747.60
2023-11-05T19:50:16.364Z,95752.40
2023-11-05T19:52:44.787Z,95754.60
2023-11-05T19:55:12.917Z,95764.20
2023-11-05T19:57:45.661Z,95778.20
2023-11-05T20:00:16.491Z,95786.00
2023-11-05T20:02:45.221Z,95788.60
2023-11-05T20:05:13.329Z,95794.40
2023-11-05T20:07:41.457Z,95798.80
2023-11-05T20:10:10.274Z,95811.60
2023-11-05T20:12:39.565Z,95813.00
2023-11-05T20:15:19.571Z,95829.00
2023-11-05T20:17:50.229Z,95828.00
2023-11-05T20:20:18.832Z,95843.40
2023-11-05T20:22:53.050Z,95852.60
2023-11-05T20:25:25.499Z,95856.60
2023-11-05T20:27:59.212Z,95871.40
2023-11-05T20:30:27.262Z,95879.00
2023-11-05T20:32:56.180Z,95883.00
2023-11-05T20:35:24.249Z,95897.40
2023-11-05T20:37:53.093Z,95901.80
2023-11-05T20:40:28.467Z,95903.00
2023-11-05T20:43:06.781Z,95904.80
2023-11-05T20:45:37.810Z,95909.60
2023-11-05T20:48:10.222Z,95914.20
2023-11-05T20:50:40.207Z,95920.60
2023-11-05T20:53:15.592Z,95925.60
2023-11-05T20:55:45.522Z,95929.20
2023-11-05T20:58:19.378Z,95933.80
2023-11-05T21:00:48.202Z,95940.20
2023-11-05T21:03:16.493Z,95939.60
2023-11-05T21:05:52.018Z,95942.60
2023-11-05T21:08:20.129Z,95949.00
2023-11-05T21:10:55.027Z,95952.20
2023-11-05T21:13:26.807Z,95955.60
2023-11-05T21:15:55.047Z,95961.60
2023-11-05T21:18:23.299Z,95966.00
2023-11-05T21:20:53.012Z,95976.80
2023-11-05T21:23:21.114Z,95983.60
2023-11-05T21:25:49.207Z,95985.80
2023-11-05T21:28:17.303Z,95991.60
2023-11-05T21:30:45.481Z,95999.60
2023-11-05T21:33:15.803Z,95999.60
2023-11-05T21:35:43.977Z,95999.20
2023-11-05T21:38:12.110Z,96007.80
2023-11-05T21:40:40.479Z,96019.40
2023-11-05T21:43:08.571Z,96015.60
2023-11-05T21:45:36.629Z,96011.80
2023-11-05T21:48:05.845Z,96011.20
2023-11-05T21:50:36.523Z,96006.20
2023-11-05T21:53:05.569Z,96009.00
2023-11-05T21:55:33.637Z,96012.80
2023-11-05T21:58:01.819Z,96013.40
2023-11-05T22:00:29.905Z,96006.40
2023-11-05T22:02:57.923Z,96009.40
2023-11-05T22:05:26.193Z,96002.40
2023-11-05T22:07:54.716Z,96004.40
2023-11-05T22:10:22.701Z,96003.80
2023-11-05T22:12:50.651Z,96003.40
2023-11-05T22:15:18.985Z,95996.80
2023-11-05T22:17:47.271Z,96006.00
2023-11-05T22:20:15.335Z,96016.00
2023-11-05T22:22:43.518Z,96008.20
2023-11-05T22:25:11.702Z,96016.00
2023-11-05T22:27:40.324Z,96022.00
2023-11-05T22:30:08.839Z,96028.60
2023-11-05T22:32:38.142Z,96024.00
2023-11-05T22:35:06.760Z,96025.20
2023-11-05T22:37:35.018Z,96026.40
2023-11-05T22:40:05.339Z,96024.00
2023-11-05T22:42:33.453Z,96012.60
2023-11-05T22:45:01.659Z,96008.80
2023-11-05T22:47:30.037Z,96013.80
2023-11-05T22:49:58.745Z,96010.00
2023-11-05T22:52:26.854Z,96013.20
2023-11-05T22:54:54.902Z,96021.20
2023-11-05T22:57:22.973Z,96014.20
2023-11-05T22:59:50.987Z,96019.40
2023-11-05T23:02:19.086Z,96016.40
2023-11-05T23:04:47.220Z,96018.60
2023-11-05T23:07:17.019Z,96022.40
2023-11-05T23:09:46.168Z,96004.00
2023-11-05T23:12:14.344Z,96002.40
2023-11-05T23:14:42.348Z,96000.60
2023-11-05T23:17:11.745Z,96007.80
2023-11-05T23:19:40.020Z,96018.80
2023-11-05T23:22:08.863Z,96018.80
2023-11-05T23:24:36.940Z,96015.60
2023-11-05T23:27:05.353Z,96018.20
2023-11-05T23:29:33.517Z,96025.20
2023-11-05T23:32:01.671Z,96025.60
2023-11-05T23:34:29.837Z,96025.00
2023-11-05T23:36:59.680Z,96029.80
2023-11-05T23:39:28.222Z,96040.40
2023-11-05T23:41:59.568Z,96041.40
2023-11-05T23:44:28.348Z,96039.80
2023-11-05T23:46:57.156Z,96041.80
2023-11-05T23:49:25.308Z,96062.60
2023-11-05T23:51:53.426Z,96066.80
2023-11-05T23:54:21.549Z,96067.60
2023-11-05T23:56:50.170Z,96056.40
2023-11-05T23:59:19.132Z,96052.60
